Startpagina
METAR-TAF:

METAR-TAF

Vliegvelden :

Yap, Micronesië

breedte: 09-29N, lengte: 138-05E, hoogte: 28 m

Actueel weer

Dit bericht is 18 minuten geleden gemaakt, om 01:50 UTC
Wind 11 kt uit het oostnoordoosten
Temperatuur 31°C
Vochtigheid 66%
Druk 1010 hPa
Zicht: 19.3 km
Weinig wolken op 1700 ft
Gebroken wolken op 30000 ft

METAR: PTYA 210150Z 07011KT 12SM FEW017 BKN300 31/24 A2982 RMK SLP100 T03100242

Tijdstip: 12:08 (02:08 UTC)

Verwachting

Dit bericht is 2 uur en het 26 minuten geleden gemaakt, om 23:42 UTC
Verwachting geldig van 21 om 00 UTC tot 21 om 24 UTC
Wind 10 kt uit het oostnoordoosten
Zicht: 10 km
Weinig wolken op 1600 ft
Verspreide wolken op 4000 ft

TAF: PTYA 202342Z 2100/2124 06010KT P6SM FEW016 SCT040

Waarnemingen en weersverwachtingen van meer dan 4000 vliegvelden (METAR en TAF).

De beschikbare stations zijn de gele en rode punten op de kaart.

Ga met uw muis naar het station om de naam te zien.

Klik dan om waarnemingen en weersverwachtingen te zien.

kaart wijzigen: klik op de groene knoppen met een zwart kruis om in te zoomen, op de groene knop met een streepje om uit te zoomen of op de groene pijlen voor aangrenzende kaarten.


METAR-TAF: